Time;durP1;ratioP1;P1;durP2;ratioP2;P2;SDS_P1;SDS_P2;PMS_P1;PMS_P2;Temp;Humidity;BMP_temperature;BMP_pressure;BME280_temperature;BME280_humidity;BME280_pressure;Samples;Min_cycle;Max_cycle;Signal;HPM_P1;HPM_P2
2022/01/22 00:02:05;;;;;;;9.30;3.30;;;;;;;8.77;61.49;103259.03;4972302;28;124347;-77
2022/01/22 00:04:34;;;;;;;10.55;4.07;;;;;;;8.76;61.19;103262.56;4970524;28;115389;-76
2022/01/22 00:07:02;;;;;;;9.82;3.80;;;;;;;8.76;61.75;103267.00;4972678;28;115748;-76
2022/01/22 00:09:51;;;;;;;10.30;3.95;;;;;;;8.77;61.69;103269.59;4970918;28;124254;-77
2022/01/22 00:12:32;;;;;;;11.48;3.92;;;;;;;8.79;61.87;103276.66;4969921;28;124454;-77
2022/01/22 00:14:59;;;;;;;7.15;3.50;;;;;;;8.80;61.36;103262.56;4972644;28;113807;-77
2022/01/22 00:17:26;;;;;;;8.02;3.95;;;;;;;8.79;61.44;103260.81;4977852;28;112823;-77
2022/01/22 00:19:53;;;;;;;11.95;3.78;;;;;;;8.79;61.58;103255.53;4989433;28;124237;-77
2022/01/22 00:22:25;;;;;;;9.02;3.63;;;;;;;8.77;61.75;103259.03;4993188;28;122841;-77
2022/01/22 00:24:58;;;;;;;7.82;3.72;;;;;;;8.76;61.91;103262.56;4991682;28;114003;-77
2022/01/22 00:27:27;;;;;;;11.40;3.85;;;;;;;8.76;61.55;103273.16;5007854;28;113440;-77
2022/01/22 00:29:55;;;;;;;9.23;3.40;;;;;;;8.76;61.59;103262.56;4990468;28;122965;-77
2022/01/22 00:32:22;;;;;;;9.00;3.53;;;;;;;8.74;61.27;103259.06;4990866;28;122107;-77
2022/01/22 00:34:49;;;;;;;9.20;3.85;;;;;;;8.74;61.73;103266.09;4975252;28;113043;-77
2022/01/22 00:37:16;;;;;;;7.78;3.70;;;;;;;8.73;61.63;103257.28;4991697;28;114119;-77
2022/01/22 00:39:43;;;;;;;9.02;3.53;;;;;;;8.72;61.82;103244.06;4992655;28;124017;-77
2022/01/22 00:42:13;;;;;;;10.23;4.05;;;;;;;8.72;61.91;103244.97;4990732;28;124409;-77
2022/01/22 00:44:41;;;;;;;8.65;3.65;;;;;;;8.74;61.60;103245.84;4991145;28;113102;-77
2022/01/22 00:47:09;;;;;;;11.40;3.95;;;;;;;8.73;61.47;103252.00;4992630;28;113598;-77
2022/01/22 00:49:37;;;;;;;9.27;4.00;;;;;;;8.71;61.90;103248.47;4993204;28;122919;-77
2022/01/22 00:52:04;;;;;;;10.20;4.20;;;;;;;8.71;61.55;103259.03;4993573;28;124479;-77
2022/01/22 00:54:32;;;;;;;9.95;3.90;;;;;;;8.73;61.41;103257.28;4992168;28;114092;-77
2022/01/22 00:56:59;;;;;;;13.02;4.28;;;;;;;8.73;61.83;103257.28;4976412;28;113966;-77
2022/01/22 00:59:26;;;;;;;12.00;4.20;;;;;;;8.71;61.70;103259.03;4991411;28;122548;-76
2022/01/22 01:01:53;;;;;;;8.18;4.20;;;;;;;8.70;61.72;103257.28;4989987;28;123208;-77
2022/01/22 01:04:20;;;;;;;13.00;4.97;;;;;;;8.71;61.66;103253.75;4990615;28;113561;-77
2022/01/22 01:06:48;;;;;;;10.60;4.38;;;;;;;8.70;61.80;103254.66;4991215;28;113727;-77
2022/01/22 01:09:17;;;;;;;11.23;4.22;;;;;;;8.70;61.69;103257.28;4990636;28;123544;-77
2022/01/22 01:11:50;;;;;;;11.18;3.67;;;;;;;8.71;61.72;103259.03;5007704;28;123749;-77
2022/01/22 01:14:25;;;;;;;14.23;5.32;;;;;;;8.70;61.81;103257.28;4973992;28;113916;-76
2022/01/22 01:33:47;;;;;;;9.63;5.22;;;;;;;8.66;62.07;103252.84;5006212;28;123722;-76
2022/01/22 01:36:15;;;;;;;13.60;5.57;;;;;;;8.65;62.24;103264.31;4989683;28;114043;-77
2022/01/22 01:38:49;;;;;;;10.48;5.32;;;;;;;8.64;61.85;103267.81;4987192;28;113959;-76
2022/01/22 01:41:27;;;;;;;9.40;4.65;;;;;;;8.65;62.03;103274.88;4973176;28;123815;-77
2022/01/22 01:43:55;;;;;;;8.43;4.95;;;;;;;8.66;62.36;103260.78;4989363;28;122845;-77
2022/01/22 01:46:52;;;;;;;10.35;5.15;;;;;;;8.67;62.24;103273.13;4976176;28;114682;-77
2022/01/22 01:49:20;;;;;;;11.63;5.57;;;;;;;8.68;61.96;103259.03;4989971;28;115157;-77
2022/01/22 01:51:47;;;;;;;9.73;5.50;;;;;;;8.69;62.25;103259.91;4990828;28;124048;-77
2022/01/22 01:59:42;;;;;;;11.45;5.75;;;;;;;8.69;62.10;103258.16;4988405;28;114775;-77
2022/01/22 02:02:13;;;;;;;12.23;5.40;;;;;;;8.69;62.53;103255.50;4988975;28;123208;-77
2022/01/22 02:04:42;;;;;;;12.38;5.93;;;;;;;8.69;62.18;103250.22;4972687;28;123789;-76
2022/01/22 02:07:10;;;;;;;15.07;6.05;;;;;;;8.71;62.18;103259.03;4988829;28;113716;-77
2022/01/22 02:09:44;;;;;;;13.25;6.25;;;;;;;8.71;62.20;103259.03;4974682;28;113256;-78
2022/01/22 02:12:19;;;;;;;10.80;5.95;;;;;;;8.71;62.37;103261.66;4972779;28;123776;-76
2022/01/22 02:23:36;;;;;;;14.00;6.47;;;;;;;8.71;62.43;103264.31;4989573;28;124296;-77
2022/01/22 02:26:05;;;;;;;12.95;6.35;;;;;;;8.69;62.42;103266.06;4989995;28;122437;-77
2022/01/22 02:28:40;;;;;;;12.03;6.47;;;;;;;8.68;62.58;103259.03;4989854;28;113646;-77
2022/01/22 02:34:09;;;;;;;15.43;7.32;;;;;;;8.71;62.52;103259.03;4989752;28;123414;-77
2022/01/22 02:36:44;;;;;;;11.85;7.38;;;;;;;8.70;62.54;103259.94;4989934;28;123706;-77
2022/01/22 02:39:16;;;;;;;14.15;7.70;;;;;;;8.70;62.69;103257.28;4989498;28;114923;-77
2022/01/22 02:41:48;;;;;;;15.52;7.60;;;;;;;8.71;62.36;103259.03;4988038;28;115070;-77
2022/01/22 02:44:33;;;;;;;13.20;7.10;;;;;;;8.71;62.63;103251.09;4989182;28;124377;-77
2022/01/22 02:47:06;;;;;;;15.73;8.15;;;;;;;8.71;62.60;103248.47;4989129;28;122152;-77
2022/01/22 02:49:36;;;;;;;18.42;8.65;;;;;;;8.71;62.52;103251.09;4973433;28;114633;-77
2022/01/22 02:52:08;;;;;;;17.70;8.13;;;;;;;8.70;62.54;103246.72;4990491;28;113066;-77
2022/01/22 02:54:39;;;;;;;15.00;8.30;;;;;;;8.70;62.45;103236.16;4989580;28;124245;-77
2022/01/22 02:57:08;;;;;;;17.65;8.43;;;;;;;8.71;62.84;103243.19;4992157;28;123540;-77
2022/01/22 02:59:37;;;;;;;17.42;7.95;;;;;;;8.73;62.61;103251.13;4989437;28;113839;-77
2022/01/22 03:02:05;;;;;;;15.48;7.85;;;;;;;8.75;62.86;103255.50;4990912;28;113352;-78
2022/01/22 03:04:32;;;;;;;17.42;8.07;;;;;;;8.77;62.80;103259.03;5004174;28;123140;-77
2022/01/22 03:07:00;;;;;;;16.23;7.90;;;;;;;8.76;62.71;103253.78;4986786;28;122006;-77
2022/01/22 03:09:30;;;;;;;15.52;8.65;;;;;;;8.74;62.59;103259.06;4986934;28;113479;-77
2022/01/22 03:20:33;;;;;;;19.40;9.30;;;;;;;8.73;63.04;103262.56;4991436;28;114186;-77
2022/01/22 03:23:08;;;;;;;;;;;;;;;8.71;62.78;103248.47;4991494;28;114219;-77
2022/01/22 03:28:26;;;;;;;;;;;;;;;8.69;62.70;103255.50;4990744;28;123169;-77
2022/01/22 03:30:53;;;;;;;16.23;7.68;;;;;;;8.71;62.57;103252.88;4973447;28;114841;-77
2022/01/22 03:33:23;;;;;;;12.57;7.95;;;;;;;8.71;62.58;103248.47;4974836;28;114947;-77
2022/01/22 03:35:55;;;;;;;15.32;7.78;;;;;;;8.71;62.63;103253.75;4991413;28;124425;-77
2022/01/22 03:38:23;;;;;;;17.90;8.23;;;;;;;8.72;63.08;103255.53;4990244;28;124178;-77
2022/01/22 03:40:50;;;;;;;15.57;8.13;;;;;;;8.71;63.07;103259.03;4990419;28;113870;-76
2022/01/22 03:43:18;;;;;;;14.48;8.13;;;;;;;8.73;62.78;103257.28;4990887;28;113823;-77
2022/01/22 03:45:49;;;;;;;19.40;8.35;;;;;;;8.75;63.03;103260.78;4989841;28;123383;-77
2022/01/22 03:48:16;;;;;;;17.77;8.70;;;;;;;8.75;62.73;103266.06;4990606;28;124761;-77
2022/01/22 03:50:44;;;;;;;16.88;8.95;;;;;;;8.75;63.01;103271.38;4990577;28;114012;-77
2022/01/22 03:53:11;;;;;;;18.88;8.50;;;;;;;8.76;62.95;103262.56;4990335;28;113339;-77
2022/01/22 03:56:03;;;;;;;18.55;9.00;;;;;;;8.77;63.25;103264.31;4989110;28;123118;-77
2022/01/22 03:58:37;;;;;;;17.95;9.30;;;;;;;8.81;62.90;103264.34;4991315;28;123786;-77
2022/01/22 04:04:13;;;;;;;18.90;8.85;;;;;;;8.80;62.70;103262.56;5006772;28;113053;-77
2022/01/22 04:07:32;;;;;;;21.88;9.38;;;;;;;8.81;62.87;103269.63;4951677;28;1106599;-77
2022/01/22 04:09:31;;;;;;;19.38;9.68;;;;;;;8.81;63.21;103274.91;4991380;28;123200;-76
2022/01/22 04:12:00;;;;;;;18.15;9.20;;;;;;;8.81;62.96;103265.22;5007563;28;113240;-76
2022/01/22 04:14:32;;;;;;;21.02;8.95;;;;;;;8.81;62.79;103266.97;4991213;28;114506;-77
2022/01/22 04:17:17;;;;;;;16.75;9.30;;;;;;;8.82;62.92;103263.47;4990729;28;123533;-77
2022/01/22 04:24:50;;;;;;;;;;;;;;;8.80;63.07;103257.28;4986358;28;114512;-77
2022/01/22 04:25:33;;;;;;;14.30;7.32;;;;;;;8.83;63.10;103270.50;4970151;28;114951;-77
2022/01/22 04:28:01;;;;;;;14.32;8.55;;;;;;;8.83;63.09;103273.16;4967821;28;124215;-77
2022/01/22 04:30:29;;;;;;;21.75;7.72;;;;;;;8.83;63.01;103273.16;4971491;28;124167;-77
2022/01/22 04:32:56;;;;;;;16.38;8.38;;;;;;;8.83;62.92;103273.16;4984378;28;113486;-77
2022/01/22 04:35:24;;;;;;;14.23;8.55;;;;;;;8.83;63.08;103267.84;4986911;28;113759;-77
2022/01/22 04:37:51;;;;;;;15.45;8.02;;;;;;;8.84;63.26;103272.28;4970496;28;124410;-77
2022/01/22 04:40:18;;;;;;;17.52;8.65;;;;;;;8.85;63.56;103266.97;4970445;28;124254;-77
2022/01/22 04:42:45;;;;;;;17.90;8.23;;;;;;;8.88;63.22;103276.69;4987249;28;114472;-77
2022/01/22 04:48:27;;;;;;;16.00;7.68;;;;;;;8.91;63.18;103276.66;4952627;28;123261;-77
2022/01/22 04:56:32;;;;;;;19.00;8.48;;;;;;;8.92;63.03;103267.88;4970170;28;114094;-77
2022/01/22 04:59:01;;;;;;;17.30;8.63;;;;;;;8.90;63.08;103267.00;4986693;28;123204;-77
2022/01/22 05:01:29;;;;;;;17.63;9.25;;;;;;;8.90;63.18;103274.91;4969911;28;123491;-77
2022/01/22 05:04:19;;;;;;;17.10;8.85;;;;;;;8.91;63.37;103260.81;4971744;28;114325;-77
2022/01/22 05:07:18;;;;;;;15.23;9.13;;;;;;;8.92;63.28;103257.31;4958795;28;113062;-76
2022/01/22 05:10:03;;;;;;;17.00;9.52;;;;;;;8.93;63.30;103259.06;4969855;28;123608;-76
2022/01/22 05:12:33;;;;;;;20.85;9.88;;;;;;;8.94;63.48;103258.19;4970330;28;124047;-77
2022/01/22 05:15:00;;;;;;;18.25;9.45;;;;;;;8.95;63.22;103252.03;4969602;28;115103;-76
2022/01/22 05:17:27;;;;;;;16.92;9.40;;;;;;;8.96;63.37;103259.06;4969902;28;114830;-77
2022/01/22 05:20:05;;;;;;;16.10;9.73;;;;;;;8.96;63.47;103254.66;4969225;28;123272;-77
2022/01/22 05:25:38;;;;;;;26.05;10.43;;;;;;;8.99;63.45;103253.78;4961119;28;112629;-77
2022/01/22 05:28:38;;;;;;;23.38;10.13;;;;;;;9.01;63.06;103252.03;4969851;28;113767;-77
2022/01/22 05:37:04;;;;;;;20.60;10.30;;;;;;;9.02;63.41;103248.47;4969244;28;112787;-77
2022/01/22 05:39:34;;;;;;;23.67;11.18;;;;;;;9.03;63.37;103254.66;4968980;28;113112;-77
2022/01/22 05:42:04;;;;;;;22.00;11.02;;;;;;;9.03;63.25;103255.53;4968279;28;123425;-77
2022/01/22 05:44:32;;;;;;;23.35;10.85;;;;;;;9.03;63.56;103255.53;4968108;28;124194;-77
2022/01/22 05:47:04;;;;;;;21.27;10.63;;;;;;;9.05;63.61;103264.34;4975676;28;114315;-77
2022/01/22 05:49:35;;;;;;;22.15;10.77;;;;;;;9.06;63.67;103265.22;4988196;28;113881;-77
2022/01/22 05:52:05;;;;;;;25.75;11.48;;;;;;;9.05;63.39;103264.34;4972487;28;124438;-77
2022/01/22 06:00:19;;;;;;;23.42;11.85;;;;;;;9.06;63.61;103263.50;4937584;28;114119;-76
2022/01/22 06:02:46;;;;;;;25.50;12.43;;;;;;;9.06;63.65;103255.56;4970976;28;123686;-76
2022/01/22 06:05:18;;;;;;;24.70;12.15;;;;;;;9.06;63.44;103255.56;4968139;28;123507;-76
2022/01/22 06:07:46;;;;;;;27.80;11.73;;;;;;;9.05;63.77;103267.00;4968730;28;114400;-76
2022/01/22 06:10:18;;;;;;;27.55;13.25;;;;;;;9.06;63.38;103260.84;4969136;28;114443;-76
2022/01/22 06:12:58;;;;;;;23.70;12.32;;;;;;;9.05;63.31;103259.06;4969403;28;122206;-77
2022/01/22 06:15:28;;;;;;;26.52;12.05;;;;;;;9.07;63.46;103265.22;4968524;28;123295;-78
2022/01/22 06:18:14;;;;;;;25.55;11.95;;;;;;;9.07;63.58;103267.88;4968456;28;115071;-77
2022/01/22 06:20:43;;;;;;;24.17;12.73;;;;;;;9.09;63.73;103271.41;4967777;28;113409;-77
2022/01/22 06:23:11;;;;;;;26.73;12.27;;;;;;;9.12;63.48;103273.19;4953333;28;123025;-77
2022/01/22 06:25:38;;;;;;;26.88;12.32;;;;;;;9.13;63.83;103273.16;4986344;28;123137;-76
2022/01/22 06:28:06;;;;;;;24.83;12.20;;;;;;;9.14;63.80;103272.28;4969633;28;112539;-76
2022/01/22 06:30:34;;;;;;;23.02;12.07;;;;;;;9.14;63.64;103269.66;4968379;28;113590;-78
2022/01/22 06:33:02;;;;;;;28.92;12.95;;;;;;;9.14;63.60;103272.28;4967936;28;123550;-77
2022/01/22 06:35:31;;;;;;;24.15;12.18;;;;;;;9.14;63.55;103274.94;4968088;28;124071;-77
2022/01/22 06:38:01;;;;;;;25.33;12.57;;;;;;;9.16;63.50;103278.47;4969088;28;112963;-77
2022/01/22 06:43:44;;;;;;;25.13;12.05;;;;;;;9.15;63.55;103282.00;4968910;28;124887;-77
2022/01/22 06:46:19;;;;;;;24.50;12.18;;;;;;;9.16;63.80;103294.31;4967912;28;123820;-77
2022/01/22 06:49:16;;;;;;;24.50;12.25;;;;;;;9.16;63.82;103294.31;4981641;28;114147;-77
2022/01/22 06:52:05;;;;;;;25.42;11.68;;;;;;;9.16;63.48;103294.31;4970036;28;114089;-77
2022/01/22 06:54:34;;;;;;;27.45;12.35;;;;;;;9.17;63.63;103297.84;4968597;28;124306;-77
2022/01/22 06:57:02;;;;;;;28.27;12.07;;;;;;;9.18;63.71;103296.09;4968420;28;122983;-78
2022/01/22 06:59:30;;;;;;;27.55;12.70;;;;;;;9.20;63.42;103294.34;4967948;28;114765;-76
2022/01/22 07:01:57;;;;;;;25.90;12.88;;;;;;;9.21;64.01;103296.06;4968001;28;114896;-77
2022/01/22 07:04:27;;;;;;;26.30;13.00;;;;;;;9.21;63.83;103296.06;4968116;28;122592;-76
2022/01/22 07:07:30;;;;;;;27.27;13.30;;;;;;;9.21;63.67;103296.06;4956863;28;124930;-77
2022/01/22 07:09:57;;;;;;;34.00;14.30;;;;;;;9.22;63.83;103304.00;4968451;28;113569;-76
2022/01/22 07:12:24;;;;;;;33.05;14.52;;;;;;;9.24;63.74;103306.66;4968615;28;113457;-76
2022/01/22 07:14:51;;;;;;;26.13;12.65;;;;;;;9.25;64.09;103303.13;4968087;28;124395;-77
2022/01/22 07:17:19;;;;;;;32.25;12.52;;;;;;;9.26;63.69;103310.19;4968126;28;123019;-75
2022/01/22 07:19:52;;;;;;;25.90;12.35;;;;;;;9.26;63.73;103320.75;4968245;28;113702;-77
2022/01/22 07:25:39;;;;;;;18.67;9.27;;;;;;;9.29;63.85;103328.72;4936043;28;123781;-76
2022/01/22 07:28:27;;;;;;;23.23;9.75;;;;;;;9.30;64.04;103333.09;4980490;28;123898;-77
2022/01/22 07:30:55;;;;;;;20.48;10.00;;;;;;;9.30;64.09;103333.09;4967587;28;113682;-76
2022/01/22 07:33:23;;;;;;;21.77;10.63;;;;;;;9.33;63.93;103330.47;4967224;28;113828;-76
2022/01/22 07:35:53;;;;;;;20.63;9.25;;;;;;;9.33;64.09;103334.00;4982760;28;123546;-75
2022/01/22 07:38:21;;;;;;;20.08;8.88;;;;;;;9.36;64.10;103333.09;4967545;28;123533;-77
2022/01/22 07:40:49;;;;;;;18.05;9.02;;;;;;;9.37;64.05;103329.59;4974093;28;113722;-76
2022/01/22 07:43:22;;;;;;;21.60;8.70;;;;;;;9.39;64.11;103333.09;4970905;28;113177;-76
2022/01/22 07:46:09;;;;;;;22.27;9.02;;;;;;;9.41;63.97;103328.69;4984755;28;125139;-76
2022/01/22 07:48:48;;;;;;;19.58;8.25;;;;;;;9.43;63.84;103334.88;4968802;28;125501;-75
2022/01/22 07:51:27;;;;;;;17.38;8.40;;;;;;;9.45;63.85;103333.09;4967229;28;115131;-77
2022/01/22 07:53:54;;;;;;;16.25;7.30;;;;;;;9.47;64.19;103326.03;4968473;28;114030;-77
2022/01/22 07:56:25;;;;;;;17.55;7.50;;;;;;;9.48;64.18;103322.53;4967740;28;123401;-76
2022/01/22 07:58:52;;;;;;;19.10;7.40;;;;;;;9.50;63.99;103320.75;4971510;28;124214;-77
2022/01/22 08:01:21;;;;;;;15.60;6.70;;;;;;;9.53;63.75;103315.47;4971547;28;113938;-76
2022/01/22 08:04:07;;;;;;;15.18;5.97;;;;;;;9.55;64.16;103324.28;4986638;28;114682;-76
2022/01/22 08:07:03;;;;;;;;;;;;;;;9.55;63.88;103323.41;4971275;28;124140;-76
2022/01/22 08:09:50;;;;;;;11.32;5.78;;;;;;;9.59;63.85;103329.56;4973009;28;124870;-76
2022/01/22 08:12:20;;;;;;;11.57;4.93;;;;;;;9.58;64.10;103328.69;4973037;28;114778;-77
2022/01/22 08:14:49;;;;;;;15.90;5.40;;;;;;;9.60;64.06;103323.41;4970775;28;112678;-76
2022/01/22 08:17:16;;;;;;;14.05;5.13;;;;;;;9.63;64.02;103331.34;4970506;28;123060;-76
2022/01/22 08:19:43;;;;;;;9.73;4.82;;;;;;;9.65;64.07;103337.53;4970967;28;122489;-77
2022/01/22 08:22:40;;;;;;;;;;;;;;;9.66;63.70;103326.94;4926814;28;114354;-76
2022/01/22 08:25:29;;;;;;;11.02;4.55;;;;;;;9.69;63.83;103331.34;4994854;28;114650;-77
2022/01/22 08:30:37;;;;;;;16.45;6.28;;;;;;;9.72;63.81;103331.34;4991221;28;122269;-77
2022/01/22 08:33:31;;;;;;;12.98;6.72;;;;;;;9.76;64.07;103338.38;4990217;28;114427;-76
2022/01/22 08:35:54;;;;;;;12.15;5.78;;;;;;;9.78;63.83;103331.31;4992369;28;113948;-76
2022/01/22 08:38:26;;;;;;;17.42;5.63;;;;;;;9.80;63.79;103333.97;4989914;28;124193;-77
2022/01/22 08:40:54;;;;;;;13.88;5.85;;;;;;;9.80;63.79;103348.06;4990308;28;124213;-77
2022/01/22 08:43:23;;;;;;;14.48;6.53;;;;;;;9.82;63.98;103343.66;4989905;28;113784;-77
2022/01/22 08:45:52;;;;;;;15.93;6.45;;;;;;;9.83;63.79;103345.44;4990604;28;115067;-77
2022/01/22 08:48:21;;;;;;;15.90;6.47;;;;;;;9.85;64.35;103354.25;4991218;28;122486;-77
2022/01/22 08:50:54;;;;;;;16.25;6.55;;;;;;;9.88;64.04;103354.22;4990545;28;122380;-76
2022/01/22 08:53:43;;;;;;;14.50;6.72;;;;;;;9.89;63.86;103358.66;5007497;28;112961;-77
2022/01/22 08:56:10;;;;;;;17.70;6.68;;;;;;;9.92;63.74;103366.56;4990717;28;111953;-77
2022/01/22 08:58:40;;;;;;;20.70;6.55;;;;;;;9.94;63.75;103369.22;4990262;28;123313;-77
2022/01/22 09:01:10;;;;;;;17.95;7.32;;;;;;;9.94;64.02;103370.13;4990408;28;123050;-77
2022/01/22 09:03:44;;;;;;;16.80;7.10;;;;;;;9.96;63.87;103371.88;4991883;28;113477;-76
2022/01/22 09:06:30;;;;;;;17.02;7.30;;;;;;;9.94;63.69;103372.78;4992104;28;114683;-77
2022/01/22 09:09:15;;;;;;;17.40;7.53;;;;;;;9.96;63.74;103369.22;4989181;28;124143;-77
2022/01/22 09:11:55;;;;;;;15.52;7.30;;;;;;;9.97;63.96;103363.94;4990163;28;124311;-76
2022/01/22 09:14:37;;;;;;;17.02;7.13;;;;;;;9.98;63.93;103375.41;4990172;28;113795;-76
2022/01/22 09:17:05;;;;;;;17.77;7.75;;;;;;;9.99;63.62;103375.41;4990506;28;113728;-76
2022/01/22 09:19:34;;;;;;;16.40;7.20;;;;;;;10.01;64.02;103370.09;4989548;28;124835;-76
2022/01/22 09:22:08;;;;;;;19.67;7.80;;;;;;;10.04;63.89;103376.28;4989396;28;123480;-76
2022/01/22 09:24:36;;;;;;;19.02;6.78;;;;;;;10.07;63.86;103367.44;4989909;28;114266;-76
2022/01/22 09:27:05;;;;;;;16.23;7.28;;;;;;;10.08;63.98;103369.22;4973477;28;113285;-76
2022/01/22 09:29:36;;;;;;;17.83;7.68;;;;;;;10.11;63.69;103369.19;4989946;28;123591;-77
2022/01/22 09:32:04;;;;;;;17.27;7.70;;;;;;;10.13;64.04;103376.25;4973237;28;124503;-77
2022/01/22 09:34:50;;;;;;;15.13;6.68;;;;;;;10.17;63.79;103378.88;4991471;28;115960;-77
2022/01/22 09:37:36;;;;;;;12.40;6.38;;;;;;;10.17;63.60;103382.44;4990409;28;115535;-77
2022/01/22 09:40:12;;;;;;;12.77;6.47;;;;;;;10.20;63.72;103382.41;4973769;28;124256;-77
2022/01/22 09:43:00;;;;;;;12.90;6.35;;;;;;;10.22;63.58;103391.22;4958814;28;124275;-77
2022/01/22 09:45:35;;;;;;;;;;;;;;;10.24;63.74;103394.75;4990776;28;113639;-77
2022/01/22 09:48:15;;;;;;;14.90;6.28;;;;;;;10.27;63.71;103394.75;5003011;28;114496;-77
2022/01/22 09:50:59;;;;;;;13.48;6.15;;;;;;;10.27;63.72;103389.47;4989092;28;123710;-77
2022/01/22 09:53:45;;;;;;;15.67;6.37;;;;;;;10.27;63.85;103400.06;5006595;28;123515;-77
2022/01/22 09:56:48;;;;;;;16.92;6.50;;;;;;;10.30;63.88;103393.84;4972698;28;114534;-76
2022/01/22 09:59:28;;;;;;;16.45;6.88;;;;;;;10.32;63.60;103398.31;4990284;28;115446;-77
2022/01/22 10:02:18;;;;;;;15.00;6.55;;;;;;;10.35;63.73;103396.53;4989108;28;124137;-77
2022/01/22 10:04:52;;;;;;;14.47;6.53;;;;;;;10.36;63.52;103396.53;4989425;28;123366;-77
2022/01/22 10:07:37;;;;;;;15.18;7.15;;;;;;;10.37;63.74;103397.41;4991296;28;115332;-77
2022/01/22 10:10:38;;;;;;;13.20;6.25;;;;;;;10.39;63.81;103398.28;4990304;28;114122;-77
2022/01/22 10:13:58;;;;;;;17.33;6.70;;;;;;;10.42;63.49;103393.00;4989380;28;124272;-77
2022/01/22 10:16:36;;;;;;;11.82;5.55;;;;;;;10.43;63.77;103400.03;4988904;28;123280;-77
2022/01/22 10:19:21;;;;;;;15.50;6.10;;;;;;;10.44;63.78;103404.47;4987672;28;114352;-77
2022/01/22 10:22:01;;;;;;;14.65;6.53;;;;;;;10.46;63.32;103405.34;4987026;28;114009;-77
2022/01/22 10:24:38;;;;;;;13.27;5.97;;;;;;;10.48;63.67;103403.56;4966960;28;123587;-77
2022/01/22 10:29:57;;;;;;;12.75;5.68;;;;;;;10.52;63.44;103410.59;4984841;28;115022;-77
2022/01/22 10:32:48;;;;;;;13.35;5.88;;;;;;;10.52;63.53;103410.59;4982609;28;114927;-77
2022/01/22 10:35:30;;;;;;;12.38;6.15;;;;;;;10.54;63.58;103407.97;4970467;28;124511;-77
2022/01/22 10:38:50;;;;;;;14.15;5.82;;;;;;;10.57;63.43;103418.53;4972128;28;123322;-77
2022/01/22 10:41:31;;;;;;;13.93;5.60;;;;;;;10.57;63.48;103414.13;4985676;28;113759;-77
2022/01/22 10:43:59;;;;;;;11.90;5.30;;;;;;;10.59;63.50;103417.66;4985759;28;113192;-77
2022/01/22 10:46:33;;;;;;;16.92;5.40;;;;;;;10.59;63.23;103422.97;4970167;28;124111;-77
2022/01/22 10:49:10;;;;;;;15.27;5.90;;;;;;;10.59;63.26;103422.97;4970558;28;122861;-77
2022/01/22 10:51:44;;;;;;;14.55;5.75;;;;;;;10.61;63.01;103415.88;4983125;28;114751;-77
2022/01/22 10:54:13;;;;;;;14.07;6.13;;;;;;;10.61;63.37;103410.56;4984429;28;113426;-77
2022/01/22 10:56:41;;;;;;;11.48;5.15;;;;;;;10.62;63.02;103409.66;4983847;28;123039;-77
2022/01/22 10:59:11;;;;;;;10.00;5.05;;;;;;;10.62;63.45;103404.38;4985373;28;122339;-76
2022/01/22 11:01:38;;;;;;;9.32;4.65;;;;;;;10.63;63.22;103402.63;4970816;28;115405;-77
2022/01/22 11:04:09;;;;;;;11.48;4.90;;;;;;;10.62;63.19;103404.38;4985687;28;113819;-77
2022/01/22 11:06:39;;;;;;;10.73;4.63;;;;;;;10.64;63.22;103404.38;4968136;28;122404;-76
2022/01/22 11:09:07;;;;;;;9.43;4.65;;;;;;;10.64;63.12;103405.28;4985404;28;123835;-75
2022/01/22 11:11:37;;;;;;;10.43;4.68;;;;;;;10.65;63.13;103403.50;4988148;28;112301;-77
2022/01/22 11:14:08;;;;;;;15.75;5.47;;;;;;;10.66;63.39;103403.50;4972955;28;113806;-77
2022/01/22 11:16:38;;;;;;;11.23;5.55;;;;;;;10.68;63.08;103395.50;4985870;28;123574;-76
2022/01/22 11:19:23;;;;;;;9.93;4.93;;;;;;;10.68;63.15;103396.41;4975177;28;124582;-76
2022/01/22 11:21:53;;;;;;;12.50;5.20;;;;;;;10.68;63.32;103391.13;4974801;28;115208;-76
2022/01/22 11:24:23;;;;;;;12.48;5.10;;;;;;;10.70;63.17;103402.59;4986075;28;114704;-75
2022/01/22 11:26:53;;;;;;;11.68;5.15;;;;;;;10.71;63.04;103399.03;4985612;28;122617;-77
2022/01/22 11:29:24;;;;;;;11.27;4.72;;;;;;;10.73;63.22;103398.16;4986334;28;123409;-76
2022/01/22 11:31:53;;;;;;;12.63;4.93;;;;;;;10.73;63.41;103392.84;4970232;28;113569;-76
2022/01/22 11:34:24;;;;;;;9.73;4.93;;;;;;;10.74;63.11;103389.31;4989157;28;113426;-77
2022/01/22 11:37:15;;;;;;;11.48;4.90;;;;;;;10.75;63.26;103385.78;4987945;28;124576;-76
2022/01/22 11:39:42;;;;;;;9.77;4.88;;;;;;;10.75;63.19;103391.09;4988955;28;124194;-76
2022/01/22 11:42:09;;;;;;;9.73;4.93;;;;;;;10.76;62.58;103398.16;4988685;28;112925;-76
2022/01/22 11:45:01;;;;;;;15.52;5.45;;;;;;;10.79;63.07;103392.81;4988216;28;114515;-76
2022/01/22 11:47:28;;;;;;;11.23;4.72;;;;;;;10.79;63.30;103387.53;4987131;28;124443;-77
2022/01/22 11:50:09;;;;;;;9.48;4.90;;;;;;;10.81;63.39;103391.03;4987617;28;122400;-76
2022/01/22 11:52:39;;;;;;;8.57;4.75;;;;;;;10.82;63.15;103395.47;4987695;28;113257;-77
2022/01/22 11:55:12;;;;;;;10.65;5.53;;;;;;;10.81;63.33;103406.94;4987624;28;113714;-76
2022/01/22 11:57:41;;;;;;;14.23;5.07;;;;;;;10.80;63.20;103400.78;4970705;28;122899;-75
2022/01/22 12:00:20;;;;;;;8.82;4.75;;;;;;;10.80;63.27;103411.38;4987350;28;124131;-76
2022/01/22 12:03:08;;;;;;;9.23;4.40;;;;;;;10.79;63.29;103399.00;4973133;28;113852;-76
2022/01/22 12:05:55;;;;;;;11.13;4.50;;;;;;;10.79;63.36;103387.53;4971885;28;113317;-76
2022/01/22 12:08:22;;;;;;;9.20;4.90;;;;;;;10.79;63.16;103392.81;4972597;28;124248;-76
2022/01/22 12:16:39;;;;;;;13.60;4.90;;;;;;;10.80;63.67;103394.59;4972074;28;114511;-76
2022/01/22 12:19:41;;;;;;;16.15;5.63;;;;;;;10.79;63.39;103387.53;5003324;28;124075;-77
2022/01/22 12:22:32;;;;;;;12.73;4.90;;;;;;;10.77;63.26;103389.31;4990604;28;124332;-77
2022/01/22 12:25:08;;;;;;;15.30;4.95;;;;;;;10.75;63.24;103393.72;5006916;28;112846;-77
2022/01/22 12:27:43;;;;;;;13.60;5.30;;;;;;;10.73;63.61;103392.84;5003534;28;114335;-78
2022/01/22 12:30:11;;;;;;;11.95;4.93;;;;;;;10.74;63.16;103397.25;5005324;28;122678;-77
2022/01/22 12:32:46;;;;;;;14.77;5.45;;;;;;;10.75;63.51;103396.38;4990240;28;123570;-77
2022/01/22 12:35:38;;;;;;;8.77;5.05;;;;;;;10.72;63.44;103392.00;4988273;28;112863;-79
2022/01/22 12:40:57;;;;;;;12.13;5.15;;;;;;;10.73;63.34;103384.91;4986805;28;124793;-76
2022/01/22 12:43:31;;;;;;;10.88;5.07;;;;;;;10.74;63.24;103394.59;4999818;28;124099;-78
2022/01/22 12:46:03;;;;;;;12.00;5.38;;;;;;;10.71;63.50;103391.09;4987196;28;113489;-77
2022/01/22 12:48:36;;;;;;;10.90;4.97;;;;;;;10.73;63.53;103398.16;4987363;28;113933;-78
2022/01/22 12:51:08;;;;;;;12.48;5.72;;;;;;;10.74;63.36;103394.59;4989408;28;124715;-78
2022/01/22 12:53:37;;;;;;;11.60;5.80;;;;;;;10.76;63.33;103392.84;4989485;28;123431;-77
2022/01/22 12:58:40;;;;;;;10.30;5.70;;;;;;;10.78;63.51;103393.72;4989431;28;114844;-78
2022/01/22 13:01:11;;;;;;;12.18;6.35;;;;;;;10.79;63.30;103393.69;5001677;28;126500;-77
2022/01/22 13:03:42;;;;;;;12.40;7.03;;;;;;;10.79;63.45;103391.03;4987572;28;123447;-78
2022/01/22 13:06:10;;;;;;;12.15;6.60;;;;;;;10.82;63.23;103398.13;4991116;28;115988;-78
2022/01/22 13:08:57;;;;;;;16.60;6.55;;;;;;;10.82;63.45;103396.34;4989898;28;115995;-78
2022/01/22 13:11:45;;;;;;;10.13;6.47;;;;;;;10.84;63.39;103386.59;4989547;28;123665;-78
2022/01/22 13:14:27;;;;;;;12.85;7.03;;;;;;;10.87;63.42;103396.34;4988223;28;124002;-79
2022/01/22 13:16:56;;;;;;;11.35;6.30;;;;;;;10.91;63.16;103392.78;4987523;28;114095;-77
2022/01/22 13:19:28;;;;;;;14.80;6.70;;;;;;;10.91;63.61;103392.78;5003605;28;114292;-78
2022/01/22 13:22:02;;;;;;;12.02;6.13;;;;;;;10.90;63.42;103398.94;5000850;28;123701;-76
2022/01/22 13:24:30;;;;;;;12.18;6.38;;;;;;;10.93;63.26;103400.72;4988507;28;124661;-78
2022/01/22 13:27:12;;;;;;;15.05;6.00;;;;;;;10.92;63.22;103402.47;4987467;28;114685;-78